Mount Berry, GA (30149)

10:37 PM EDT on April 30, 2017 (GMT -0400)
Oak Hill & The Martha Berry Museum | | Change Station

Elev 643 ft 34.28 °N, 85.18 °W | Updated 2 seconds ago

Overcast
Overcast
66.1 °F
Feels Like 66.1 °F
N
0.0
Wind Variable Wind from East

Today
High -- | Low -- °F
--% Chance of Precip.
Yesterday
High -- | Low -- °F
Precip. -- in
Pressure 29.97 in
Visibility 10.0 miles
Clouds Few 5500 ft
Mostly Cloudy 7000 ft
Overcast 8000 ft
Dew Point 65 °F
Humidity 98%
Rainfall 0.33 in
Snow Depth Not available.
6:51 AM 8:24 PM
Waxing Crescent, 28% visible
METAR KRMG 010153Z AUTO 15003KT 10SM FEW055 BKN070 OVC080 19/18 A2999 RMK AO2 RAB01E52 SLP147 P0000 T01940178
Pressure 29.97 in
Visibility 10.0 miles
Clouds Few 5500 ft
Mostly Cloudy 7000 ft
Overcast 8000 ft
Dew Point 65 °F
Humidity 98%
Rainfall 0.33 in
Snow Depth Not available.
6:51 AM 8:24 PM
Waxing Crescent, 28% visible
METAR KRMG 010153Z AUTO 15003KT 10SM FEW055 BKN070 OVC080 19/18 A2999 RMK AO2 RAB01E52 SLP147 P0000 T01940178

Get Severe Weather Alerts

Thanks for signing up!

Be on the lookout for a verification email in your inbox.

You'll start receiving the daily forecast at 8 AM.

×

10-Day Weather Forecast

Almanac

Astronomy

Apr. 30, 2017 Rise Set
Actual Time
Civil Twilight
Nautical Twilight
Astronomical Twilight
Moon
Length of Visible Light
Length of Day
Tomorrow will be .
, % of the Moon is Illuminated

Today's Extremes

State Highs State Lows

Community

WunderPhotos

WunderBlog® & News

Nearby

Air Quality

  Air Quality AQ Index Pollutant
Not available.

Snow Depth

Station Depth Elevation

Earthquake Activity

City Distance Mag. Time & Date
Minimum magnitude displayed is 2.5.

Coastal Water Temperatures

Place Temperature

Stations

Nearby Weather Stations

Station Location Temp. Windchill Dew Point Humidity Wind Precip. Elev Updated Type
                   

Watches & Warnings

There are currently no watches in effect.